createdAt,value
2019-01-13T09:31:05.646Z,62
2019-01-13T09:31:36.527Z,63
2019-01-13T09:31:52.046Z,64
2019-01-13T09:32:07.044Z,64
2019-01-13T09:32:18.363Z,64
2019-01-13T09:32:29.614Z,64
2019-01-13T09:32:46.809Z,64
2019-01-13T09:32:58.232Z,64
2019-01-13T09:33:14.214Z,64
2019-01-13T09:33:28.416Z,64
2019-01-13T09:33:39.804Z,64
2019-01-13T09:33:51.473Z,64
2019-01-13T09:34:02.825Z,64
2019-01-13T09:34:14.719Z,64
2019-01-13T09:34:26.202Z,64
2019-01-13T09:34:37.687Z,64
2019-01-13T09:34:49.172Z,64
2019-01-13T09:35:01.067Z,63
2019-01-13T09:35:12.473Z,64
2019-01-13T09:35:23.912Z,63
2019-01-13T09:35:38.911Z,64
2019-01-13T09:35:54.013Z,63
2019-01-13T09:36:05.414Z,63
2019-01-13T09:36:16.734Z,63
2019-01-13T09:36:30.957Z,63
2019-01-13T09:36:42.398Z,63
2019-01-13T09:36:53.733Z,63
2019-01-13T09:37:05.210Z,63
2019-01-13T09:37:16.719Z,63
2019-01-13T09:37:28.269Z,63
2019-01-13T09:37:42.694Z,63
2019-01-13T09:37:57.496Z,63
2019-01-13T09:38:13.708Z,63
2019-01-13T09:38:28.860Z,63
2019-01-13T09:38:40.319Z,62
2019-01-13T09:38:51.737Z,62
2019-01-13T09:39:04.133Z,62
2019-01-13T09:39:15.807Z,62
2019-01-13T09:39:27.352Z,62
2019-01-13T09:39:38.899Z,62
2019-01-13T09:39:50.479Z,62
2019-01-13T09:40:01.837Z,62
2019-01-13T09:40:14.383Z,63
2019-01-13T09:40:25.835Z,62
2019-01-13T09:40:37.260Z,63
2019-01-13T09:40:52.349Z,63
2019-01-13T09:41:03.880Z,63
2019-01-13T09:41:19.107Z,63
2019-01-13T09:41:33.631Z,63
2019-01-13T09:41:45.322Z,63
2019-01-13T09:41:56.904Z,63
2019-01-13T09:42:08.556Z,63
2019-01-13T09:42:19.941Z,62
2019-01-13T09:42:31.735Z,62
2019-01-13T09:42:43.905Z,62
2019-01-13T09:42:55.436Z,62
2019-01-13T09:43:08.112Z,62
2019-01-13T09:43:19.814Z,62
2019-01-13T09:43:31.437Z,62
2019-01-13T09:43:43.116Z,61
2019-01-13T09:43:58.486Z,62
2019-01-13T09:44:09.820Z,61
2019-01-13T09:44:21.217Z,61
2019-01-13T09:44:32.635Z,61
2019-01-13T09:44:44.037Z,61
2019-01-13T09:44:58.248Z,61
2019-01-13T09:45:09.606Z,61
2019-01-13T09:45:21.047Z,61
2019-01-13T09:45:32.467Z,61
2019-01-13T09:45:43.973Z,60
2019-01-13T09:45:55.561Z,61
2019-01-13T09:46:07.036Z,60
2019-01-13T09:46:21.423Z,60
2019-01-13T09:46:33.031Z,60
2019-01-13T09:46:44.670Z,60
2019-01-13T09:46:56.060Z,60
2019-01-13T09:47:07.482Z,60
2019-01-13T09:47:20.005Z,60
2019-01-13T09:47:31.369Z,61
2019-01-13T09:47:42.797Z,61
2019-01-13T09:47:54.194Z,62
2019-01-13T09:48:05.806Z,62
2019-01-13T09:48:22.238Z,62
2019-01-13T09:48:37.063Z,62
2019-01-13T09:48:48.477Z,62
2019-01-13T09:48:59.922Z,62
2019-01-13T09:49:14.183Z,62
2019-01-13T09:49:25.560Z,62
2019-01-13T09:49:37.341Z,62
2019-01-13T09:49:55.029Z,62
2019-01-13T09:50:06.731Z,62
2019-01-13T09:50:18.733Z,62
2019-01-13T09:50:33.127Z,62
2019-01-13T09:50:44.636Z,62
2019-01-13T09:50:59.597Z,62
2019-01-13T09:51:10.976Z,62
2019-01-13T09:51:25.273Z,62
2019-01-13T09:51:36.816Z,62
2019-01-13T09:51:48.301Z,62
2019-01-13T09:51:59.748Z,61
2019-01-13T09:52:14.245Z,62
2019-01-13T09:52:25.681Z,62
2019-01-13T09:52:37.205Z,62
2019-01-13T09:52:48.744Z,62
2019-01-13T09:53:00.266Z,62
2019-01-13T09:53:11.764Z,62
2019-01-13T09:53:23.249Z,62
2019-01-13T09:53:34.957Z,62
2019-01-13T09:53:49.548Z,62
2019-01-13T09:54:02.170Z,62
2019-01-13T09:54:16.455Z,61
2019-01-13T09:54:28.046Z,62
2019-01-13T09:54:42.572Z,62
2019-01-13T09:54:57.178Z,62
2019-01-13T09:55:08.771Z,62
2019-01-13T09:55:21.314Z,62
2019-01-13T09:55:32.758Z,62
2019-01-13T09:55:44.363Z,62
2019-01-13T09:55:59.067Z,62
2019-01-13T09:56:10.890Z,62
2019-01-13T09:56:22.459Z,61
2019-01-13T09:56:33.826Z,62
2019-01-13T09:56:45.338Z,62
2019-01-13T09:56:57.277Z,62
2019-01-13T09:57:11.671Z,62
2019-01-13T09:57:23.125Z,61
2019-01-13T09:57:34.635Z,61
2019-01-13T09:57:46.167Z,60
2019-01-13T09:58:00.477Z,61
2019-01-13T09:58:14.807Z,62
2019-01-13T09:58:26.076Z,61
2019-01-13T09:58:42.664Z,62
2019-01-13T09:58:57.070Z,62
2019-01-13T09:59:08.555Z,61
2019-01-13T09:59:21.070Z,61
2019-01-13T09:59:35.233Z,61
2019-01-13T09:59:49.615Z,61
2019-01-13T10:00:01.119Z,61
2019-01-13T10:00:16.427Z,61
2019-01-13T10:00:31.751Z,62
2019-01-13T10:00:43.347Z,61
2019-01-13T10:00:57.879Z,61
2019-01-13T10:01:12.430Z,61
2019-01-13T10:01:29.842Z,62
2019-01-13T10:01:44.866Z,62
2019-01-13T10:01:56.380Z,61
2019-01-13T10:02:08.021Z,61
2019-01-13T10:02:25.585Z,62
2019-01-13T10:02:37.245Z,62
2019-01-13T10:02:54.531Z,62
2019-01-13T10:03:06.246Z,61
2019-01-13T10:03:18.115Z,62
2019-01-13T10:03:34.052Z,62
2019-01-13T10:03:51.416Z,62
2019-01-13T10:04:03.339Z,62
2019-01-13T10:04:15.985Z,62
2019-01-13T10:04:27.513Z,61
2019-01-13T10:04:42.120Z,62
2019-01-13T10:04:53.638Z,62
2019-01-13T10:05:05.217Z,62
2019-01-13T10:05:19.799Z,62
2019-01-13T10:05:32.001Z,62
2019-01-13T10:05:46.561Z,62
2019-01-13T10:06:01.671Z,62
2019-01-13T10:06:17.062Z,62
2019-01-13T10:06:34.377Z,62
2019-01-13T10:06:45.722Z,63
2019-01-13T10:06:57.323Z,63
2019-01-13T10:07:08.688Z,62
2019-01-13T10:07:20.086Z,63
2019-01-13T10:07:31.316Z,63
2019-01-13T10:07:42.862Z,63
2019-01-13T10:07:57.163Z,63
2019-01-13T10:08:08.593Z,62
2019-01-13T10:08:20.029Z,62
2019-01-13T10:08:31.665Z,63
2019-01-13T10:08:43.108Z,62
2019-01-13T10:08:57.466Z,63
2019-01-13T10:09:08.962Z,63
2019-01-13T10:09:20.522Z,63
2019-01-13T10:09:32.030Z,63
2019-01-13T10:09:43.627Z,63
2019-01-13T10:09:55.662Z,63
2019-01-13T10:10:07.335Z,63
2019-01-13T10:10:21.732Z,63
2019-01-13T10:10:33.259Z,64
2019-01-13T10:10:48.806Z,63
2019-01-13T10:11:00.353Z,63
2019-01-13T10:11:11.959Z,63
2019-01-13T10:11:23.535Z,63
2019-01-13T10:11:37.871Z,63
2019-01-13T10:11:49.485Z,64
2019-01-13T10:12:01.077Z,63
2019-01-13T10:12:12.748Z,64
2019-01-13T10:12:24.376Z,64
2019-01-13T10:12:40.019Z,64
2019-01-13T10:12:51.564Z,64
2019-01-13T10:13:03.911Z,64
2019-01-13T10:13:18.445Z,64
2019-01-13T10:13:32.831Z,64
2019-01-13T10:13:47.541Z,64
2019-01-13T10:14:02.443Z,64
2019-01-13T10:14:14.500Z,64
2019-01-13T10:14:29.967Z,64
2019-01-13T10:14:41.872Z,64
2019-01-13T10:14:53.907Z,64
2019-01-13T10:15:05.713Z,64
2019-01-13T10:15:17.962Z,64
2019-01-13T10:15:29.460Z,64
2019-01-13T10:15:41.237Z,64
2019-01-13T10:15:53.250Z,64
2019-01-13T10:16:07.930Z,65
2019-01-13T10:16:19.483Z,65
2019-01-13T10:16:31.072Z,64
2019-01-13T10:16:42.658Z,64
2019-01-13T10:16:54.159Z,64
2019-01-13T10:17:05.890Z,64
2019-01-13T10:17:20.863Z,65
2019-01-13T10:17:32.495Z,64
2019-01-13T10:17:44.071Z,65
2019-01-13T10:17:58.513Z,65
2019-01-13T10:18:12.986Z,65
2019-01-13T10:18:24.619Z,65
2019-01-13T10:18:36.123Z,65
2019-01-13T10:18:47.834Z,65
2019-01-13T10:18:59.475Z,65
2019-01-13T10:19:11.095Z,65
2019-01-13T10:19:23.152Z,66
2019-01-13T10:19:34.749Z,66
2019-01-13T10:19:49.393Z,66
2019-01-13T10:20:01.637Z,66
2019-01-13T10:20:13.403Z,66
2019-01-13T10:20:25.103Z,66
2019-01-13T10:20:38.362Z,66
2019-01-13T10:20:50.430Z,66
2019-01-13T10:21:06.450Z,66
2019-01-13T10:21:21.091Z,66
2019-01-13T10:21:38.876Z,66
2019-01-13T10:21:51.488Z,66
2019-01-13T10:22:07.004Z,66
2019-01-13T10:22:18.579Z,66
2019-01-13T10:22:30.107Z,66
2019-01-13T10:22:42.288Z,66
2019-01-13T10:22:53.822Z,66
2019-01-13T10:23:05.322Z,66
2019-01-13T10:23:17.298Z,66
2019-01-13T10:23:31.782Z,67
2019-01-13T10:23:43.179Z,66
2019-01-13T10:23:54.803Z,67
2019-01-13T10:24:09.916Z,66
2019-01-13T10:24:24.299Z,67
2019-01-13T10:24:36.188Z,66
2019-01-13T10:24:47.924Z,67
2019-01-13T10:24:59.433Z,66
2019-01-13T10:25:13.933Z,67
2019-01-13T10:25:31.631Z,67
2019-01-13T10:25:46.758Z,67
2019-01-13T10:25:58.272Z,67
2019-01-13T10:26:09.801Z,67
2019-01-13T10:26:22.220Z,67
2019-01-13T10:26:33.730Z,67
2019-01-13T10:26:48.923Z,67
2019-01-13T10:27:00.405Z,67
2019-01-13T10:27:11.941Z,67
2019-01-13T10:27:30.187Z,67
2019-01-13T10:27:41.718Z,67
2019-01-13T10:27:53.518Z,67
2019-01-13T10:28:06.340Z,67
2019-01-13T10:28:18.289Z,67
2019-01-13T10:28:30.269Z,67
2019-01-13T10:28:41.626Z,67
2019-01-13T10:28:53.101Z,67
2019-01-13T10:29:04.521Z,67
2019-01-13T10:29:19.038Z,67
2019-01-13T10:29:30.545Z,67
2019-01-13T10:29:45.012Z,67
2019-01-13T10:29:59.418Z,67
2019-01-13T10:30:10.866Z,67
2019-01-13T10:30:22.626Z,67
2019-01-13T10:30:41.955Z,67
2019-01-13T10:31:02.975Z,67
2019-01-13T10:31:14.466Z,67
2019-01-13T10:31:26.074Z,67
2019-01-13T10:31:40.576Z,67
2019-01-13T10:31:57.775Z,67
2019-01-13T10:32:09.579Z,67
2019-01-13T10:32:20.976Z,67
2019-01-13T10:32:32.801Z,67
2019-01-13T10:32:44.226Z,67
2019-01-13T10:33:03.632Z,67
2019-01-13T10:33:15.210Z,67
2019-01-13T10:33:26.956Z,67
2019-01-13T10:33:38.521Z,67
2019-01-13T10:33:52.946Z,67
2019-01-13T10:34:04.657Z,67
2019-01-13T10:34:16.253Z,67
2019-01-13T10:34:27.889Z,67
2019-01-13T10:34:43.109Z,67
2019-01-13T10:34:54.637Z,67
2019-01-13T10:35:09.194Z,67
2019-01-13T10:35:20.807Z,67
2019-01-13T10:35:32.475Z,67
2019-01-13T10:35:44.861Z,67
2019-01-13T10:35:56.441Z,68
2019-01-13T10:36:08.043Z,67
2019-01-13T10:36:19.628Z,68
2019-01-13T10:36:31.211Z,67
2019-01-13T10:36:42.803Z,68
2019-01-13T10:36:57.293Z,68
2019-01-13T10:37:08.731Z,68
2019-01-13T10:37:20.234Z,68
2019-01-13T10:37:31.568Z,68
2019-01-13T10:37:42.957Z,68
2019-01-13T10:38:00.291Z,68
2019-01-13T10:38:11.747Z,68
2019-01-13T10:38:23.063Z,68
2019-01-13T10:38:34.533Z,68
2019-01-13T10:38:47.192Z,68
2019-01-13T10:39:01.066Z,68
2019-01-13T10:39:14.947Z,68
2019-01-13T10:39:27.672Z,68
2019-01-13T10:39:44.862Z,68
2019-01-13T10:39:59.725Z,68
2019-01-13T10:40:14.594Z,68
2019-01-13T10:40:27.721Z,67
2019-01-13T10:40:40.808Z,67
2019-01-13T10:40:53.158Z,67
2019-01-13T10:41:08.489Z,68
2019-01-13T10:41:21.149Z,68
2019-01-13T10:41:34.559Z,68
2019-01-13T10:41:54.784Z,68
2019-01-13T10:42:09.267Z,68
2019-01-13T10:42:22.689Z,68
2019-01-13T10:42:35.632Z,68
2019-01-13T10:42:50.665Z,68
